sensor_id;sensor_type;location;lat;lon;timestamp;P1;durP1;ratioP1;P2;durP2;ratioP2
63346;SDS011;49472;49.880;8.650;2022-10-17T00:00:29;18.53;;;16.70;;
63346;SDS011;49472;49.880;8.650;2022-10-17T00:02:58;22.13;;;16.50;;
63346;SDS011;49472;49.880;8.650;2022-10-17T00:05:23;19.00;;;17.47;;
63346;SDS011;49472;49.880;8.650;2022-10-17T00:07:49;17.43;;;16.00;;
63346;SDS011;49472;49.880;8.650;2022-10-17T00:10:15;19.33;;;16.60;;
63346;SDS011;49472;49.880;8.650;2022-10-17T00:12:41;25.50;;;16.70;;
63346;SDS011;49472;49.880;8.650;2022-10-17T00:15:06;17.53;;;16.23;;
63346;SDS011;49472;49.880;8.650;2022-10-17T00:17:32;18.10;;;16.50;;
63346;SDS011;49472;49.880;8.650;2022-10-17T00:19:59;27.20;;;17.47;;
63346;SDS011;49472;49.880;8.650;2022-10-17T00:22:25;17.10;;;15.40;;
63346;SDS011;49472;49.880;8.650;2022-10-17T00:24:51;19.00;;;16.20;;
63346;SDS011;49472;49.880;8.650;2022-10-17T00:27:17;17.57;;;15.90;;
63346;SDS011;49472;49.880;8.650;2022-10-17T00:29:46;18.30;;;16.60;;
63346;SDS011;49472;49.880;8.650;2022-10-17T00:32:12;26.83;;;16.37;;
63346;SDS011;49472;49.880;8.650;2022-10-17T00:34:38;17.00;;;15.60;;
63346;SDS011;49472;49.880;8.650;2022-10-17T00:37:03;18.00;;;16.10;;
63346;SDS011;49472;49.880;8.650;2022-10-17T00:39:28;16.73;;;15.07;;
63346;SDS011;49472;49.880;8.650;2022-10-17T00:41:54;17.30;;;15.70;;
63346;SDS011;49472;49.880;8.650;2022-10-17T00:46:54;17.27;;;15.53;;
63346;SDS011;49472;49.880;8.650;2022-10-17T00:49:23;19.53;;;17.57;;
63346;SDS011;49472;49.880;8.650;2022-10-17T00:51:52;24.30;;;18.03;;
63346;SDS011;49472;49.880;8.650;2022-10-17T00:54:20;27.87;;;18.70;;
63346;SDS011;49472;49.880;8.650;2022-10-17T00:56:49;19.70;;;17.90;;
63346;SDS011;49472;49.880;8.650;2022-10-17T00:59:15;19.90;;;18.20;;
63346;SDS011;49472;49.880;8.650;2022-10-17T01:01:45;21.77;;;19.43;;
63346;SDS011;49472;49.880;8.650;2022-10-17T01:04:16;21.20;;;18.40;;
63346;SDS011;49472;49.880;8.650;2022-10-17T01:06:43;25.70;;;20.53;;
63346;SDS011;49472;49.880;8.650;2022-10-17T01:09:08;35.87;;;19.73;;
63346;SDS011;49472;49.880;8.650;2022-10-17T01:11:50;20.60;;;18.80;;
63346;SDS011;49472;49.880;8.650;2022-10-17T01:22:25;22.63;;;17.93;;
63346;SDS011;49472;49.880;8.650;2022-10-17T01:31:08;25.07;;;17.10;;
63346;SDS011;49472;49.880;8.650;2022-10-17T01:39:16;22.90;;;17.60;;
63346;SDS011;49472;49.880;8.650;2022-10-17T01:41:46;19.40;;;17.63;;
63346;SDS011;49472;49.880;8.650;2022-10-17T01:44:26;18.17;;;16.53;;
63346;SDS011;49472;49.880;8.650;2022-10-17T01:46:55;17.83;;;16.40;;
63346;SDS011;49472;49.880;8.650;2022-10-17T01:49:28;18.70;;;16.87;;
63346;SDS011;49472;49.880;8.650;2022-10-17T01:52:06;17.60;;;16.20;;
63346;SDS011;49472;49.880;8.650;2022-10-17T01:57:08;23.33;;;16.73;;
63346;SDS011;49472;49.880;8.650;2022-10-17T01:59:39;17.63;;;16.50;;
63346;SDS011;49472;49.880;8.650;2022-10-17T02:02:07;18.30;;;16.80;;
63346;SDS011;49472;49.880;8.650;2022-10-17T02:04:34;19.17;;;17.20;;
63346;SDS011;49472;49.880;8.650;2022-10-17T02:07:10;19.70;;;17.40;;
63346;SDS011;49472;49.880;8.650;2022-10-17T02:09:37;22.17;;;17.40;;
63346;SDS011;49472;49.880;8.650;2022-10-17T02:17:57;18.87;;;17.37;;
63346;SDS011;49472;49.880;8.650;2022-10-17T02:23:26;18.10;;;16.73;;
63346;SDS011;49472;49.880;8.650;2022-10-17T02:29:02;19.63;;;17.60;;
63346;SDS011;49472;49.880;8.650;2022-10-17T02:31:35;24.93;;;17.93;;
63346;SDS011;49472;49.880;8.650;2022-10-17T02:36:42;19.90;;;18.30;;
63346;SDS011;49472;49.880;8.650;2022-10-17T02:39:12;24.73;;;16.33;;
63346;SDS011;49472;49.880;8.650;2022-10-17T02:41:38;18.47;;;16.70;;
63346;SDS011;49472;49.880;8.650;2022-10-17T02:44:05;17.87;;;16.67;;
63346;SDS011;49472;49.880;8.650;2022-10-17T02:46:31;18.27;;;16.60;;
63346;SDS011;49472;49.880;8.650;2022-10-17T02:54:10;18.17;;;15.90;;
63346;SDS011;49472;49.880;8.650;2022-10-17T02:57:00;29.93;;;17.17;;
63346;SDS011;49472;49.880;8.650;2022-10-17T02:59:32;18.80;;;17.03;;
63346;SDS011;49472;49.880;8.650;2022-10-17T03:02:01;18.93;;;17.17;;
63346;SDS011;49472;49.880;8.650;2022-10-17T03:04:28;19.37;;;16.73;;
63346;SDS011;49472;49.880;8.650;2022-10-17T03:06:54;31.10;;;16.50;;
63346;SDS011;49472;49.880;8.650;2022-10-17T03:09:19;19.80;;;17.73;;
63346;SDS011;49472;49.880;8.650;2022-10-17T03:11:44;19.87;;;17.97;;
63346;SDS011;49472;49.880;8.650;2022-10-17T03:14:10;19.17;;;17.47;;
63346;SDS011;49472;49.880;8.650;2022-10-17T03:16:35;18.50;;;17.07;;
63346;SDS011;49472;49.880;8.650;2022-10-17T03:19:01;19.23;;;17.47;;
63346;SDS011;49472;49.880;8.650;2022-10-17T03:21:26;19.77;;;17.13;;
63346;SDS011;49472;49.880;8.650;2022-10-17T03:23:51;19.53;;;17.60;;
63346;SDS011;49472;49.880;8.650;2022-10-17T03:26:17;22.27;;;18.10;;
63346;SDS011;49472;49.880;8.650;2022-10-17T03:28:42;20.93;;;18.80;;
63346;SDS011;49472;49.880;8.650;2022-10-17T03:31:08;19.77;;;18.03;;
63346;SDS011;49472;49.880;8.650;2022-10-17T03:33:35;20.70;;;18.60;;
63346;SDS011;49472;49.880;8.650;2022-10-17T03:36:08;21.53;;;18.00;;
63346;SDS011;49472;49.880;8.650;2022-10-17T03:38:36;18.47;;;16.97;;
63346;SDS011;49472;49.880;8.650;2022-10-17T03:41:02;19.80;;;18.10;;
63346;SDS011;49472;49.880;8.650;2022-10-17T03:43:28;19.53;;;17.83;;
63346;SDS011;49472;49.880;8.650;2022-10-17T03:45:55;21.17;;;19.00;;
63346;SDS011;49472;49.880;8.650;2022-10-17T03:48:22;29.30;;;18.17;;
63346;SDS011;49472;49.880;8.650;2022-10-17T03:50:48;18.90;;;16.87;;
63346;SDS011;49472;49.880;8.650;2022-10-17T03:53:13;19.70;;;18.00;;
63346;SDS011;49472;49.880;8.650;2022-10-17T03:55:39;23.17;;;17.97;;
63346;SDS011;49472;49.880;8.650;2022-10-17T03:58:04;28.10;;;18.17;;
63346;SDS011;49472;49.880;8.650;2022-10-17T04:00:29;20.43;;;18.30;;
63346;SDS011;49472;49.880;8.650;2022-10-17T04:02:55;19.50;;;17.47;;
63346;SDS011;49472;49.880;8.650;2022-10-17T04:05:22;19.27;;;17.83;;
63346;SDS011;49472;49.880;8.650;2022-10-17T04:07:47;21.17;;;18.43;;
63346;SDS011;49472;49.880;8.650;2022-10-17T04:10:12;20.50;;;18.60;;
63346;SDS011;49472;49.880;8.650;2022-10-17T04:12:37;23.00;;;18.67;;
63346;SDS011;49472;49.880;8.650;2022-10-17T04:15:03;19.97;;;18.40;;
63346;SDS011;49472;49.880;8.650;2022-10-17T04:17:29;20.43;;;18.77;;
63346;SDS011;49472;49.880;8.650;2022-10-17T04:19:55;19.77;;;18.17;;
63346;SDS011;49472;49.880;8.650;2022-10-17T04:22:20;21.80;;;19.60;;
63346;SDS011;49472;49.880;8.650;2022-10-17T04:24:45;21.00;;;19.07;;
63346;SDS011;49472;49.880;8.650;2022-10-17T04:27:11;21.17;;;19.00;;
63346;SDS011;49472;49.880;8.650;2022-10-17T04:29:36;20.77;;;18.57;;
63346;SDS011;49472;49.880;8.650;2022-10-17T04:32:01;20.30;;;18.60;;
63346;SDS011;49472;49.880;8.650;2022-10-17T04:34:27;20.57;;;18.83;;
63346;SDS011;49472;49.880;8.650;2022-10-17T04:36:52;21.43;;;18.90;;
63346;SDS011;49472;49.880;8.650;2022-10-17T04:39:18;20.23;;;18.63;;
63346;SDS011;49472;49.880;8.650;2022-10-17T04:41:43;21.93;;;18.33;;
63346;SDS011;49472;49.880;8.650;2022-10-17T04:44:09;20.17;;;18.40;;
63346;SDS011;49472;49.880;8.650;2022-10-17T04:46:34;19.63;;;17.80;;
63346;SDS011;49472;49.880;8.650;2022-10-17T04:49:00;20.53;;;18.63;;
63346;SDS011;49472;49.880;8.650;2022-10-17T04:51:25;21.40;;;19.07;;
63346;SDS011;49472;49.880;8.650;2022-10-17T04:53:51;21.10;;;19.10;;
63346;SDS011;49472;49.880;8.650;2022-10-17T04:56:19;20.63;;;18.53;;
63346;SDS011;49472;49.880;8.650;2022-10-17T04:58:47;22.83;;;20.60;;
63346;SDS011;49472;49.880;8.650;2022-10-17T05:01:18;22.60;;;20.33;;
63346;SDS011;49472;49.880;8.650;2022-10-17T05:03:45;25.07;;;21.30;;
63346;SDS011;49472;49.880;8.650;2022-10-17T05:06:12;35.70;;;22.20;;
63346;SDS011;49472;49.880;8.650;2022-10-17T05:08:39;34.73;;;24.20;;
63346;SDS011;49472;49.880;8.650;2022-10-17T05:11:05;30.07;;;23.40;;
63346;SDS011;49472;49.880;8.650;2022-10-17T05:13:40;34.50;;;23.30;;
63346;SDS011;49472;49.880;8.650;2022-10-17T05:16:06;33.10;;;24.37;;
63346;SDS011;49472;49.880;8.650;2022-10-17T05:18:31;30.20;;;24.20;;
63346;SDS011;49472;49.880;8.650;2022-10-17T05:20:56;30.93;;;24.57;;
63346;SDS011;49472;49.880;8.650;2022-10-17T05:23:22;31.27;;;24.70;;
63346;SDS011;49472;49.880;8.650;2022-10-17T05:25:52;28.67;;;24.13;;
63346;SDS011;49472;49.880;8.650;2022-10-17T05:28:18;30.83;;;27.40;;
63346;SDS011;49472;49.880;8.650;2022-10-17T05:30:43;27.20;;;24.27;;
63346;SDS011;49472;49.880;8.650;2022-10-17T05:33:09;27.10;;;23.60;;
63346;SDS011;49472;49.880;8.650;2022-10-17T05:35:34;28.93;;;23.97;;
63346;SDS011;49472;49.880;8.650;2022-10-17T05:38:00;32.40;;;24.23;;
63346;SDS011;49472;49.880;8.650;2022-10-17T05:40:25;38.20;;;24.37;;
63346;SDS011;49472;49.880;8.650;2022-10-17T05:42:51;36.47;;;24.33;;
63346;SDS011;49472;49.880;8.650;2022-10-17T05:45:16;26.33;;;23.87;;
63346;SDS011;49472;49.880;8.650;2022-10-17T05:47:41;30.80;;;23.67;;
63346;SDS011;49472;49.880;8.650;2022-10-17T05:50:08;25.40;;;22.70;;
63346;SDS011;49472;49.880;8.650;2022-10-17T05:52:35;24.53;;;22.37;;
63346;SDS011;49472;49.880;8.650;2022-10-17T05:55:01;33.03;;;23.53;;
63346;SDS011;49472;49.880;8.650;2022-10-17T05:57:27;43.83;;;25.20;;
63346;SDS011;49472;49.880;8.650;2022-10-17T05:59:53;33.83;;;22.67;;
63346;SDS011;49472;49.880;8.650;2022-10-17T06:02:18;27.40;;;24.30;;
63346;SDS011;49472;49.880;8.650;2022-10-17T06:04:43;26.60;;;23.33;;
63346;SDS011;49472;49.880;8.650;2022-10-17T06:07:13;37.40;;;23.87;;
63346;SDS011;49472;49.880;8.650;2022-10-17T06:09:39;35.60;;;24.00;;
63346;SDS011;49472;49.880;8.650;2022-10-17T06:12:05;25.50;;;22.90;;
63346;SDS011;49472;49.880;8.650;2022-10-17T06:14:30;25.60;;;23.13;;
63346;SDS011;49472;49.880;8.650;2022-10-17T06:16:56;32.30;;;22.93;;
63346;SDS011;49472;49.880;8.650;2022-10-17T06:19:21;34.60;;;23.17;;
63346;SDS011;49472;49.880;8.650;2022-10-17T06:21:47;34.70;;;22.60;;
63346;SDS011;49472;49.880;8.650;2022-10-17T06:24:12;24.70;;;22.40;;
63346;SDS011;49472;49.880;8.650;2022-10-17T06:26:38;30.43;;;21.77;;
63346;SDS011;49472;49.880;8.650;2022-10-17T06:29:03;25.43;;;22.83;;
63346;SDS011;49472;49.880;8.650;2022-10-17T06:31:29;27.90;;;25.30;;
63346;SDS011;49472;49.880;8.650;2022-10-17T06:33:54;33.20;;;23.60;;
63346;SDS011;49472;49.880;8.650;2022-10-17T06:36:20;25.90;;;23.33;;
63346;SDS011;49472;49.880;8.650;2022-10-17T06:38:45;29.17;;;22.80;;
63346;SDS011;49472;49.880;8.650;2022-10-17T06:41:13;25.17;;;22.43;;
63346;SDS011;49472;49.880;8.650;2022-10-17T06:43:40;25.47;;;22.77;;
63346;SDS011;49472;49.880;8.650;2022-10-17T06:46:09;31.63;;;23.50;;
63346;SDS011;49472;49.880;8.650;2022-10-17T06:48:35;34.13;;;23.30;;
63346;SDS011;49472;49.880;8.650;2022-10-17T06:51:00;28.80;;;24.13;;
63346;SDS011;49472;49.880;8.650;2022-10-17T06:53:27;30.83;;;23.63;;
63346;SDS011;49472;49.880;8.650;2022-10-17T06:55:53;32.27;;;24.10;;
63346;SDS011;49472;49.880;8.650;2022-10-17T06:58:22;33.23;;;23.70;;
63346;SDS011;49472;49.880;8.650;2022-10-17T07:00:47;29.27;;;22.73;;
63346;SDS011;49472;49.880;8.650;2022-10-17T07:03:14;27.53;;;22.20;;
63346;SDS011;49472;49.880;8.650;2022-10-17T07:05:39;30.73;;;22.77;;
63346;SDS011;49472;49.880;8.650;2022-10-17T07:08:05;24.40;;;22.20;;
63346;SDS011;49472;49.880;8.650;2022-10-17T07:10:31;23.93;;;21.53;;
63346;SDS011;49472;49.880;8.650;2022-10-17T07:13:02;28.07;;;22.73;;
63346;SDS011;49472;49.880;8.650;2022-10-17T07:15:28;25.73;;;23.17;;
63346;SDS011;49472;49.880;8.650;2022-10-17T07:17:53;24.87;;;22.67;;
63346;SDS011;49472;49.880;8.650;2022-10-17T07:20:27;33.33;;;22.37;;
63346;SDS011;49472;49.880;8.650;2022-10-17T07:23:10;25.10;;;22.77;;
63346;SDS011;49472;49.880;8.650;2022-10-17T07:25:36;32.90;;;22.83;;
63346;SDS011;49472;49.880;8.650;2022-10-17T07:28:01;25.40;;;23.03;;
63346;SDS011;49472;49.880;8.650;2022-10-17T07:30:28;24.80;;;22.60;;
63346;SDS011;49472;49.880;8.650;2022-10-17T07:32:53;27.80;;;23.03;;
63346;SDS011;49472;49.880;8.650;2022-10-17T07:35:18;33.33;;;22.57;;
63346;SDS011;49472;49.880;8.650;2022-10-17T07:37:44;24.33;;;22.20;;
63346;SDS011;49472;49.880;8.650;2022-10-17T07:40:10;23.97;;;22.00;;
63346;SDS011;49472;49.880;8.650;2022-10-17T07:42:35;38.27;;;21.40;;
63346;SDS011;49472;49.880;8.650;2022-10-17T07:45:01;23.90;;;21.90;;
63346;SDS011;49472;49.880;8.650;2022-10-17T07:47:27;23.97;;;21.33;;
63346;SDS011;49472;49.880;8.650;2022-10-17T07:49:55;23.53;;;21.40;;
63346;SDS011;49472;49.880;8.650;2022-10-17T07:52:20;23.17;;;20.97;;
63346;SDS011;49472;49.880;8.650;2022-10-17T07:54:46;23.37;;;21.20;;
63346;SDS011;49472;49.880;8.650;2022-10-17T07:57:11;21.60;;;19.70;;
63346;SDS011;49472;49.880;8.650;2022-10-17T07:59:36;21.50;;;19.50;;
63346;SDS011;49472;49.880;8.650;2022-10-17T08:02:02;22.20;;;20.60;;
63346;SDS011;49472;49.880;8.650;2022-10-17T08:04:31;22.70;;;20.57;;
63346;SDS011;49472;49.880;8.650;2022-10-17T08:07:00;30.43;;;19.90;;
63346;SDS011;49472;49.880;8.650;2022-10-17T08:09:25;22.10;;;20.00;;
63346;SDS011;49472;49.880;8.650;2022-10-17T08:11:50;22.67;;;20.43;;
63346;SDS011;49472;49.880;8.650;2022-10-17T08:14:16;22.33;;;20.30;;
63346;SDS011;49472;49.880;8.650;2022-10-17T08:16:41;27.47;;;20.80;;
63346;SDS011;49472;49.880;8.650;2022-10-17T08:19:07;22.77;;;20.47;;
63346;SDS011;49472;49.880;8.650;2022-10-17T08:21:33;22.93;;;20.53;;
63346;SDS011;49472;49.880;8.650;2022-10-17T08:23:59;21.40;;;19.60;;
63346;SDS011;49472;49.880;8.650;2022-10-17T08:26:26;22.23;;;20.03;;
63346;SDS011;49472;49.880;8.650;2022-10-17T08:28:52;24.30;;;20.47;;
63346;SDS011;49472;49.880;8.650;2022-10-17T08:31:18;21.60;;;19.53;;
63346;SDS011;49472;49.880;8.650;2022-10-17T08:33:44;22.47;;;19.83;;
63346;SDS011;49472;49.880;8.650;2022-10-17T08:36:11;24.50;;;20.97;;
63346;SDS011;49472;49.880;8.650;2022-10-17T08:38:38;27.00;;;19.27;;
63346;SDS011;49472;49.880;8.650;2022-10-17T08:41:11;21.60;;;19.47;;
63346;SDS011;49472;49.880;8.650;2022-10-17T08:44:02;20.67;;;18.53;;
63346;SDS011;49472;49.880;8.650;2022-10-17T08:46:35;23.50;;;21.00;;
63346;SDS011;49472;49.880;8.650;2022-10-17T08:49:06;20.47;;;18.77;;
63346;SDS011;49472;49.880;8.650;2022-10-17T08:51:37;21.27;;;19.57;;
63346;SDS011;49472;49.880;8.650;2022-10-17T08:54:13;20.33;;;18.50;;
63346;SDS011;49472;49.880;8.650;2022-10-17T08:56:43;20.33;;;18.53;;
63346;SDS011;49472;49.880;8.650;2022-10-17T08:59:17;19.53;;;18.00;;
63346;SDS011;49472;49.880;8.650;2022-10-17T09:01:48;20.33;;;18.40;;
63346;SDS011;49472;49.880;8.650;2022-10-17T09:12:11;20.20;;;18.67;;
63346;SDS011;49472;49.880;8.650;2022-10-17T09:14:49;19.37;;;17.57;;
63346;SDS011;49472;49.880;8.650;2022-10-17T09:20:18;19.87;;;18.40;;
63346;SDS011;49472;49.880;8.650;2022-10-17T09:25:21;21.73;;;18.27;;
63346;SDS011;49472;49.880;8.650;2022-10-17T09:27:51;19.13;;;17.63;;
63346;SDS011;49472;49.880;8.650;2022-10-17T09:32:55;21.43;;;17.80;;
63346;SDS011;49472;49.880;8.650;2022-10-17T09:35:21;20.50;;;17.73;;
63346;SDS011;49472;49.880;8.650;2022-10-17T09:37:47;19.20;;;17.80;;
63346;SDS011;49472;49.880;8.650;2022-10-17T09:40:25;20.13;;;18.00;;
63346;SDS011;49472;49.880;8.650;2022-10-17T09:42:56;18.20;;;16.73;;
63346;SDS011;49472;49.880;8.650;2022-10-17T09:45:23;24.60;;;18.57;;
63346;SDS011;49472;49.880;8.650;2022-10-17T09:50:33;17.73;;;16.33;;
63346;SDS011;49472;49.880;8.650;2022-10-17T09:53:00;19.20;;;17.50;;
63346;SDS011;49472;49.880;8.650;2022-10-17T09:55:45;18.30;;;16.80;;
63346;SDS011;49472;49.880;8.650;2022-10-17T09:58:13;19.23;;;17.37;;
63346;SDS011;49472;49.880;8.650;2022-10-17T10:00:40;18.87;;;17.37;;
63346;SDS011;49472;49.880;8.650;2022-10-17T10:05:39;19.20;;;17.37;;
63346;SDS011;49472;49.880;8.650;2022-10-17T10:08:16;18.00;;;16.70;;
63346;SDS011;49472;49.880;8.650;2022-10-17T10:10:43;18.17;;;16.70;;
63346;SDS011;49472;49.880;8.650;2022-10-17T10:15:38;18.50;;;17.10;;
63346;SDS011;49472;49.880;8.650;2022-10-17T10:23:32;18.80;;;16.90;;
63346;SDS011;49472;49.880;8.650;2022-10-17T10:26:00;17.23;;;15.83;;
63346;SDS011;49472;49.880;8.650;2022-10-17T10:28:31;18.02;;;16.05;;
63346;SDS011;49472;49.880;8.650;2022-10-17T10:31:03;19.13;;;17.33;;
63346;SDS011;49472;49.880;8.650;2022-10-17T10:33:32;17.67;;;16.40;;
63346;SDS011;49472;49.880;8.650;2022-10-17T10:36:01;17.55;;;16.00;;
63346;SDS011;49472;49.880;8.650;2022-10-17T10:38:29;17.08;;;15.82;;
63346;SDS011;49472;49.880;8.650;2022-10-17T10:41:00;17.20;;;16.00;;
63346;SDS011;49472;49.880;8.650;2022-10-17T10:43:32;17.65;;;15.88;;
63346;SDS011;49472;49.880;8.650;2022-10-17T10:45:58;17.27;;;15.63;;
63346;SDS011;49472;49.880;8.650;2022-10-17T10:48:25;17.93;;;16.17;;
63346;SDS011;49472;49.880;8.650;2022-10-17T10:50:58;17.08;;;15.70;;
63346;SDS011;49472;49.880;8.650;2022-10-17T10:55:58;17.27;;;15.88;;
63346;SDS011;49472;49.880;8.650;2022-10-17T10:58:43;17.10;;;15.65;;
63346;SDS011;49472;49.880;8.650;2022-10-17T11:06:54;17.40;;;15.90;;
63346;SDS011;49472;49.880;8.650;2022-10-17T11:15:02;16.48;;;15.27;;
63346;SDS011;49472;49.880;8.650;2022-10-17T11:17:44;17.90;;;16.50;;
63346;SDS011;49472;49.880;8.650;2022-10-17T11:23:18;17.23;;;15.40;;
63346;SDS011;49472;49.880;8.650;2022-10-17T11:25:49;16.85;;;15.73;;
63346;SDS011;49472;49.880;8.650;2022-10-17T11:28:18;16.10;;;15.10;;
63346;SDS011;49472;49.880;8.650;2022-10-17T11:30:56;17.30;;;15.70;;
63346;SDS011;49472;49.880;8.650;2022-10-17T11:33:29;16.50;;;15.40;;
63346;SDS011;49472;49.880;8.650;2022-10-17T11:35:57;16.73;;;15.27;;
63346;SDS011;49472;49.880;8.650;2022-10-17T11:41:26;15.68;;;14.48;;
63346;SDS011;49472;49.880;8.650;2022-10-17T11:43:58;15.90;;;14.77;;
63346;SDS011;49472;49.880;8.650;2022-10-17T11:46:32;17.20;;;14.77;;
63346;SDS011;49472;49.880;8.650;2022-10-17T11:54:23;15.48;;;14.48;;
63346;SDS011;49472;49.880;8.650;2022-10-17T11:57:05;15.70;;;14.38;;
63346;SDS011;49472;49.880;8.650;2022-10-17T12:02:22;15.25;;;13.88;;
63346;SDS011;49472;49.880;8.650;2022-10-17T12:05:02;15.40;;;14.30;;
63346;SDS011;49472;49.880;8.650;2022-10-17T12:08:02;15.75;;;14.30;;
63346;SDS011;49472;49.880;8.650;2022-10-17T12:13:45;15.60;;;14.43;;
63346;SDS011;49472;49.880;8.650;2022-10-17T12:18:47;16.63;;;15.35;;
63346;SDS011;49472;49.880;8.650;2022-10-17T12:21:15;15.50;;;14.40;;
63346;SDS011;49472;49.880;8.650;2022-10-17T12:23:42;14.65;;;13.65;;
63346;SDS011;49472;49.880;8.650;2022-10-17T12:26:24;14.80;;;13.90;;
63346;SDS011;49472;49.880;8.650;2022-10-17T12:28:50;15.63;;;14.27;;
63346;SDS011;49472;49.880;8.650;2022-10-17T12:33:53;13.88;;;12.98;;
63346;SDS011;49472;49.880;8.650;2022-10-17T12:42:02;15.90;;;14.80;;
63346;SDS011;49472;49.880;8.650;2022-10-17T12:54:49;15.35;;;14.23;;
63346;SDS011;49472;49.880;8.650;2022-10-17T13:00:05;16.08;;;14.55;;
63346;SDS011;49472;49.880;8.650;2022-10-17T13:02:39;16.40;;;14.57;;
63346;SDS011;49472;49.880;8.650;2022-10-17T13:05:07;14.93;;;13.82;;
63346;SDS011;49472;49.880;8.650;2022-10-17T13:07:39;15.23;;;13.80;;
63346;SDS011;49472;49.880;8.650;2022-10-17T13:10:14;16.15;;;14.63;;
63346;SDS011;49472;49.880;8.650;2022-10-17T13:12:43;14.60;;;13.80;;
63346;SDS011;49472;49.880;8.650;2022-10-17T13:15:10;16.20;;;13.70;;
63346;SDS011;49472;49.880;8.650;2022-10-17T13:17:43;14.90;;;13.70;;
63346;SDS011;49472;49.880;8.650;2022-10-17T13:20:21;14.93;;;13.52;;
63346;SDS011;49472;49.880;8.650;2022-10-17T13:22:49;15.20;;;13.70;;
63346;SDS011;49472;49.880;8.650;2022-10-17T13:25:16;15.35;;;13.90;;
63346;SDS011;49472;49.880;8.650;2022-10-17T13:27:43;14.88;;;13.68;;
63346;SDS011;49472;49.880;8.650;2022-10-17T13:32:54;14.52;;;13.15;;
63346;SDS011;49472;49.880;8.650;2022-10-17T13:35:33;14.32;;;13.20;;
63346;SDS011;49472;49.880;8.650;2022-10-17T13:38:02;14.40;;;13.30;;
63346;SDS011;49472;49.880;8.650;2022-10-17T13:40:31;13.82;;;12.93;;
63346;SDS011;49472;49.880;8.650;2022-10-17T13:43:04;15.65;;;14.15;;
63346;SDS011;49472;49.880;8.650;2022-10-17T13:45:43;14.65;;;13.65;;
63346;SDS011;49472;49.880;8.650;2022-10-17T13:48:27;17.08;;;14.13;;
63346;SDS011;49472;49.880;8.650;2022-10-17T13:50:55;20.58;;;13.48;;
63346;SDS011;49472;49.880;8.650;2022-10-17T13:53:32;14.48;;;13.27;;
63346;SDS011;49472;49.880;8.650;2022-10-17T13:56:15;13.43;;;12.52;;
63346;SDS011;49472;49.880;8.650;2022-10-17T13:58:48;18.63;;;13.65;;
63346;SDS011;49472;49.880;8.650;2022-10-17T14:01:20;14.75;;;13.35;;
63346;SDS011;49472;49.880;8.650;2022-10-17T14:03:46;13.98;;;13.18;;
63346;SDS011;49472;49.880;8.650;2022-10-17T14:06:45;14.27;;;12.90;;
63346;SDS011;49472;49.880;8.650;2022-10-17T14:09:24;14.80;;;13.57;;
63346;SDS011;49472;49.880;8.650;2022-10-17T14:11:56;14.13;;;13.13;;
63346;SDS011;49472;49.880;8.650;2022-10-17T14:14:22;13.73;;;12.82;;
63346;SDS011;49472;49.880;8.650;2022-10-17T14:16:50;14.63;;;13.30;;
63346;SDS011;49472;49.880;8.650;2022-10-17T14:19:26;15.50;;;13.40;;
63346;SDS011;49472;49.880;8.650;2022-10-17T14:21:55;13.50;;;12.70;;
63346;SDS011;49472;49.880;8.650;2022-10-17T14:24:48;13.18;;;12.38;;
63346;SDS011;49472;49.880;8.650;2022-10-17T14:29:56;16.92;;;13.52;;
63346;SDS011;49472;49.880;8.650;2022-10-17T14:32:27;16.42;;;13.95;;
63346;SDS011;49472;49.880;8.650;2022-10-17T14:34:58;14.75;;;13.77;;
63346;SDS011;49472;49.880;8.650;2022-10-17T14:39:59;14.50;;;12.98;;
63346;SDS011;49472;49.880;8.650;2022-10-17T14:42:26;13.27;;;12.40;;
63346;SDS011;49472;49.880;8.650;2022-10-17T14:44:53;13.95;;;13.05;;
63346;SDS011;49472;49.880;8.650;2022-10-17T14:47:25;14.52;;;13.63;;
63346;SDS011;49472;49.880;8.650;2022-10-17T14:50:01;14.73;;;13.68;;
63346;SDS011;49472;49.880;8.650;2022-10-17T14:52:48;14.30;;;13.13;;
63346;SDS011;49472;49.880;8.650;2022-10-17T14:55:24;15.45;;;13.88;;
63346;SDS011;49472;49.880;8.650;2022-10-17T14:57:51;16.05;;;14.68;;
63346;SDS011;49472;49.880;8.650;2022-10-17T15:00:17;15.65;;;14.23;;
63346;SDS011;49472;49.880;8.650;2022-10-17T15:02:43;15.70;;;14.55;;
63346;SDS011;49472;49.880;8.650;2022-10-17T15:05:12;15.50;;;14.50;;
63346;SDS011;49472;49.880;8.650;2022-10-17T15:07:38;16.42;;;15.02;;
63346;SDS011;49472;49.880;8.650;2022-10-17T15:10:03;17.08;;;14.88;;
63346;SDS011;49472;49.880;8.650;2022-10-17T15:12:29;20.92;;;14.93;;
63346;SDS011;49472;49.880;8.650;2022-10-17T15:14:56;16.15;;;14.85;;
63346;SDS011;49472;49.880;8.650;2022-10-17T15:17:30;16.63;;;15.27;;
63346;SDS011;49472;49.880;8.650;2022-10-17T15:19:58;16.20;;;15.10;;
63346;SDS011;49472;49.880;8.650;2022-10-17T15:22:24;16.30;;;15.07;;
63346;SDS011;49472;49.880;8.650;2022-10-17T15:24:49;16.00;;;14.45;;
63346;SDS011;49472;49.880;8.650;2022-10-17T15:27:16;16.60;;;15.30;;
63346;SDS011;49472;49.880;8.650;2022-10-17T15:29:42;16.58;;;14.85;;
63346;SDS011;49472;49.880;8.650;2022-10-17T15:32:08;16.25;;;14.35;;
63346;SDS011;49472;49.880;8.650;2022-10-17T15:34:34;15.68;;;14.30;;
63346;SDS011;49472;49.880;8.650;2022-10-17T15:36:59;17.20;;;15.52;;
63346;SDS011;49472;49.880;8.650;2022-10-17T15:39:25;17.00;;;15.45;;
63346;SDS011;49472;49.880;8.650;2022-10-17T15:41:50;17.77;;;16.10;;
63346;SDS011;49472;49.880;8.650;2022-10-17T15:44:16;17.52;;;15.82;;
63346;SDS011;49472;49.880;8.650;2022-10-17T15:46:41;16.05;;;15.10;;
63346;SDS011;49472;49.880;8.650;2022-10-17T15:49:11;17.08;;;15.40;;
63346;SDS011;49472;49.880;8.650;2022-10-17T15:51:39;17.00;;;14.95;;
63346;SDS011;49472;49.880;8.650;2022-10-17T15:54:04;15.93;;;14.35;;
63346;SDS011;49472;49.880;8.650;2022-10-17T15:56:31;15.48;;;14.05;;
63346;SDS011;49472;49.880;8.650;2022-10-17T15:59:03;17.13;;;15.80;;
63346;SDS011;49472;49.880;8.650;2022-10-17T16:01:30;16.95;;;15.55;;
63346;SDS011;49472;49.880;8.650;2022-10-17T16:03:57;17.08;;;15.45;;
63346;SDS011;49472;49.880;8.650;2022-10-17T16:06:23;18.55;;;15.60;;
63346;SDS011;49472;49.880;8.650;2022-10-17T16:08:49;16.27;;;15.05;;
63346;SDS011;49472;49.880;8.650;2022-10-17T16:13:44;16.95;;;15.65;;
63346;SDS011;49472;49.880;8.650;2022-10-17T16:16:14;16.42;;;14.88;;
63346;SDS011;49472;49.880;8.650;2022-10-17T16:18:40;16.17;;;14.52;;
63346;SDS011;49472;49.880;8.650;2022-10-17T16:21:05;17.42;;;16.05;;
63346;SDS011;49472;49.880;8.650;2022-10-17T16:23:30;21.80;;;15.65;;
63346;SDS011;49472;49.880;8.650;2022-10-17T16:25:56;36.30;;;17.02;;
63346;SDS011;49472;49.880;8.650;2022-10-17T16:28:21;19.95;;;16.35;;
63346;SDS011;49472;49.880;8.650;2022-10-17T16:30:46;18.50;;;16.83;;
63346;SDS011;49472;49.880;8.650;2022-10-17T16:33:13;24.63;;;19.17;;
63346;SDS011;49472;49.880;8.650;2022-10-17T16:35:38;36.30;;;23.60;;
63346;SDS011;49472;49.880;8.650;2022-10-17T16:38:05;27.85;;;22.30;;
63346;SDS011;49472;49.880;8.650;2022-10-17T16:40:31;43.13;;;20.42;;
63346;SDS011;49472;49.880;8.650;2022-10-17T16:42:56;26.58;;;20.70;;
63346;SDS011;49472;49.880;8.650;2022-10-17T16:45:22;23.58;;;21.05;;
63346;SDS011;49472;49.880;8.650;2022-10-17T16:47:48;34.25;;;19.25;;